createdAt,value
2023-03-25T00:01:16.614Z,0.37
2023-03-25T00:03:48.067Z,0.77
2023-03-25T00:06:16.651Z,0.60
2023-03-25T00:08:47.266Z,0.50
2023-03-25T00:11:30.499Z,0.80
2023-03-25T00:13:59.414Z,1.40
2023-03-25T00:16:37.322Z,0.57
2023-03-25T00:19:06.733Z,0.53
2023-03-25T00:21:37.379Z,1.00
2023-03-25T00:24:08.361Z,0.73
2023-03-25T00:26:43.320Z,0.70
2023-03-25T00:29:12.334Z,0.50
2023-03-25T00:31:41.091Z,0.80
2023-03-25T00:34:14.688Z,0.50
2023-03-25T00:36:43.943Z,0.50
2023-03-25T00:39:18.164Z,0.30
2023-03-25T00:41:49.224Z,0.60
2023-03-25T00:44:18.154Z,0.40
2023-03-25T00:46:47.614Z,0.50
2023-03-25T00:49:17.870Z,0.60
2023-03-25T00:51:53.084Z,0.60
2023-03-25T00:54:26.502Z,0.50
2023-03-25T00:56:54.748Z,0.70
2023-03-25T00:59:27.360Z,0.70
2023-03-25T01:01:57.590Z,0.93
2023-03-25T01:04:26.853Z,0.67
2023-03-25T01:09:53.070Z,0.73
2023-03-25T01:12:25.440Z,0.60
2023-03-25T01:14:56.672Z,0.80
2023-03-25T01:17:27.648Z,0.80
2023-03-25T01:19:57.831Z,0.60
2023-03-25T01:22:27.135Z,0.97
2023-03-25T01:24:58.478Z,0.80
2023-03-25T01:27:27.303Z,0.80
2023-03-25T01:29:58.105Z,1.37
2023-03-25T01:32:33.717Z,0.90
2023-03-25T01:35:05.533Z,0.70
2023-03-25T01:37:36.722Z,0.73
2023-03-25T01:40:21.217Z,0.60
2023-03-25T01:42:51.756Z,0.60
2023-03-25T01:45:34.585Z,0.60
2023-03-25T01:48:16.319Z,0.60
2023-03-25T01:50:47.000Z,0.60
2023-03-25T01:53:19.212Z,0.50
2023-03-25T01:55:50.628Z,0.97
2023-03-25T01:58:20.111Z,0.90
2023-03-25T02:00:50.343Z,0.87
2023-03-25T02:03:22.388Z,0.90
2023-03-25T02:05:54.635Z,0.80
2023-03-25T02:08:24.094Z,0.63
2023-03-25T02:10:57.813Z,0.90
2023-03-25T02:13:26.956Z,1.07
2023-03-25T02:16:22.718Z,0.90
2023-03-25T02:19:01.486Z,0.80
2023-03-25T02:21:49.426Z,0.50
2023-03-25T02:24:48.628Z,1.10
2023-03-25T02:30:40.832Z,1.00
2023-03-25T02:33:50.478Z,0.60
2023-03-25T02:36:52.882Z,0.77
2023-03-25T02:39:24.088Z,0.73
2023-03-25T02:41:54.920Z,0.40
2023-03-25T02:44:32.776Z,0.47
2023-03-25T02:47:06.520Z,0.40
2023-03-25T02:49:37.797Z,0.50
2023-03-25T02:52:10.614Z,0.80
2023-03-25T02:54:44.220Z,0.60
2023-03-25T02:57:17.606Z,0.60
2023-03-25T02:59:47.501Z,0.47
2023-03-25T03:02:16.737Z,0.67
2023-03-25T03:04:53.592Z,0.50
2023-03-25T03:07:25.739Z,0.50
2023-03-25T03:10:26.190Z,0.40
2023-03-25T03:13:04.649Z,0.50
2023-03-25T03:15:39.910Z,0.43
2023-03-25T03:18:14.847Z,0.60
2023-03-25T03:20:50.941Z,0.60
2023-03-25T03:23:24.590Z,0.67
2023-03-25T03:26:05.561Z,0.63
2023-03-25T03:28:38.044Z,0.60
2023-03-25T03:31:09.586Z,0.40
2023-03-25T03:33:43.386Z,0.60
2023-03-25T03:36:18.630Z,0.57
2023-03-25T03:38:54.570Z,1.33
2023-03-25T03:41:28.601Z,0.60
2023-03-25T03:44:00.231Z,0.50
2023-03-25T03:46:32.737Z,0.53
2023-03-25T03:49:06.234Z,0.83
2023-03-25T03:51:37.840Z,0.63
2023-03-25T03:54:14.177Z,0.43
2023-03-25T03:56:48.059Z,0.50
2023-03-25T03:59:21.860Z,0.77
2023-03-25T04:01:55.948Z,0.50
2023-03-25T04:04:27.260Z,0.40
2023-03-25T04:07:05.863Z,0.70
2023-03-25T04:09:41.908Z,0.50
2023-03-25T04:12:17.206Z,0.70
2023-03-25T04:14:49.199Z,0.60
2023-03-25T04:17:24.488Z,0.90
2023-03-25T04:19:53.839Z,0.60
2023-03-25T04:22:27.819Z,0.60
2023-03-25T04:25:02.456Z,0.60
2023-03-25T04:27:43.361Z,0.50
2023-03-25T04:30:21.460Z,0.60
2023-03-25T04:32:57.448Z,0.70
2023-03-25T04:35:28.718Z,0.50
2023-03-25T04:37:58.140Z,1.00
2023-03-25T04:40:31.251Z,0.67
2023-03-25T04:43:03.626Z,0.80
2023-03-25T04:45:36.921Z,0.53
2023-03-25T04:48:06.374Z,0.67
2023-03-25T04:50:35.015Z,0.80
2023-03-25T04:53:10.571Z,0.63
2023-03-25T04:55:54.815Z,0.80
2023-03-25T04:58:26.141Z,0.73
2023-03-25T05:00:56.869Z,1.17
2023-03-25T05:03:25.114Z,0.73
2023-03-25T05:05:55.535Z,0.80
2023-03-25T05:08:37.978Z,1.17
2023-03-25T05:11:12.502Z,0.70
2023-03-25T05:13:43.559Z,0.90
2023-03-25T05:16:14.521Z,0.60
2023-03-25T05:18:42.761Z,0.77
2023-03-25T05:21:16.627Z,0.83
2023-03-25T05:23:45.597Z,0.60
2023-03-25T05:26:17.541Z,0.90
2023-03-25T05:28:51.622Z,0.90
2023-03-25T05:31:22.888Z,0.80
2023-03-25T05:34:00.224Z,1.20
2023-03-25T05:36:30.017Z,1.10
2023-03-25T05:39:30.151Z,0.70
2023-03-25T05:44:52.548Z,1.00
2023-03-25T05:47:23.605Z,1.47
2023-03-25T05:49:54.343Z,1.10
2023-03-25T05:52:27.408Z,1.30
2023-03-25T05:54:55.912Z,1.17
2023-03-25T05:57:28.270Z,1.20
2023-03-25T06:00:05.534Z,1.10
2023-03-25T06:02:42.131Z,1.30
2023-03-25T06:05:16.117Z,1.70
2023-03-25T06:07:47.065Z,1.00
2023-03-25T06:10:38.466Z,1.57
2023-03-25T06:13:07.873Z,1.20
2023-03-25T06:15:46.668Z,0.70
2023-03-25T06:18:15.107Z,1.77
2023-03-25T06:20:47.832Z,0.93
2023-03-25T06:23:42.343Z,0.93
2023-03-25T06:26:12.001Z,0.80
2023-03-25T06:28:44.770Z,1.00
2023-03-25T06:31:28.428Z,0.80
2023-03-25T06:34:01.882Z,0.50
2023-03-25T06:36:33.599Z,0.90
2023-03-25T06:39:04.579Z,1.23
2023-03-25T06:41:39.918Z,0.60
2023-03-25T06:44:07.786Z,0.63
2023-03-25T06:46:47.691Z,1.00
2023-03-25T06:49:16.624Z,0.83
2023-03-25T06:51:48.692Z,1.00
2023-03-25T06:54:23.063Z,0.80
2023-03-25T06:56:53.850Z,0.87
2023-03-25T06:59:25.767Z,0.57
2023-03-25T07:01:57.805Z,0.83
2023-03-25T07:07:53.070Z,0.70
2023-03-25T07:10:25.073Z,0.77
2023-03-25T07:12:58.078Z,1.03
2023-03-25T07:15:32.680Z,0.50
2023-03-25T07:18:03.105Z,0.53
2023-03-25T07:20:33.228Z,0.80
2023-03-25T07:23:03.995Z,1.00
2023-03-25T07:25:35.489Z,0.67
2023-03-25T07:28:06.453Z,0.60
2023-03-25T07:30:36.269Z,0.60
2023-03-25T07:33:12.051Z,0.50
2023-03-25T07:35:41.646Z,0.77
2023-03-25T07:38:12.770Z,0.80
2023-03-25T07:40:41.745Z,1.00
2023-03-25T07:43:10.059Z,1.20
2023-03-25T07:45:44.609Z,0.67
2023-03-25T07:48:17.945Z,0.60
2023-03-25T07:50:46.628Z,0.70
2023-03-25T07:53:17.831Z,0.50
2023-03-25T07:55:52.514Z,0.50
2023-03-25T07:58:21.798Z,0.90
2023-03-25T08:00:51.480Z,0.60
2023-03-25T08:03:22.284Z,0.70
2023-03-25T08:05:55.948Z,0.70
2023-03-25T08:08:31.512Z,0.90
2023-03-25T08:11:09.176Z,0.63
2023-03-25T08:13:38.543Z,0.70
2023-03-25T08:16:12.255Z,0.87
2023-03-25T08:18:49.227Z,0.57
2023-03-25T08:21:17.541Z,0.53
2023-03-25T08:23:46.073Z,0.90
2023-03-25T08:26:17.472Z,0.87
2023-03-25T08:28:47.605Z,1.10
2023-03-25T08:31:15.882Z,0.47
2023-03-25T08:33:46.014Z,0.73
2023-03-25T08:36:20.169Z,0.50
2023-03-25T08:38:52.605Z,0.40
2023-03-25T08:41:20.810Z,0.73
2023-03-25T08:43:49.106Z,0.53
2023-03-25T08:46:17.687Z,0.50
2023-03-25T08:48:56.124Z,0.40
2023-03-25T08:51:24.684Z,0.43
2023-03-25T08:53:54.420Z,0.70
2023-03-25T08:56:26.387Z,0.40
2023-03-25T08:58:58.340Z,0.67
2023-03-25T09:01:30.433Z,0.53
2023-03-25T09:04:05.596Z,0.70
2023-03-25T09:06:47.819Z,0.63
2023-03-25T09:09:26.242Z,0.30
2023-03-25T09:11:55.050Z,0.53
2023-03-25T09:14:42.485Z,0.60
2023-03-25T09:17:11.293Z,0.67
2023-03-25T09:19:41.659Z,0.50
2023-03-25T09:22:17.385Z,0.40
2023-03-25T09:24:46.036Z,0.40
2023-03-25T09:27:22.028Z,0.87
2023-03-25T09:29:50.577Z,0.43
2023-03-25T09:32:23.370Z,0.40
2023-03-25T09:37:51.919Z,0.47
2023-03-25T09:40:24.785Z,0.40
2023-03-25T09:43:02.155Z,0.80
2023-03-25T09:45:37.791Z,0.80
2023-03-25T09:48:14.927Z,0.47
2023-03-25T09:50:52.731Z,0.93
2023-03-25T09:53:31.400Z,0.47
2023-03-25T09:56:20.549Z,0.60
2023-03-25T09:59:00.151Z,0.60
2023-03-25T10:01:41.683Z,0.60
2023-03-25T10:04:38.826Z,0.60
2023-03-25T10:07:35.102Z,0.83
2023-03-25T10:12:23.737Z,0.70
2023-03-25T10:13:48.654Z,0.60
2023-03-25T10:16:27.799Z,0.70
2023-03-25T10:19:20.288Z,0.40
2023-03-25T10:21:57.810Z,0.80
2023-03-25T10:24:40.060Z,0.63
2023-03-25T10:27:20.145Z,0.50
2023-03-25T10:29:52.366Z,0.80
2023-03-25T10:32:39.438Z,0.70
2023-03-25T10:35:11.693Z,0.63
2023-03-25T10:37:44.948Z,0.73
2023-03-25T10:40:25.530Z,0.60
2023-03-25T10:43:09.615Z,1.00
2023-03-25T10:45:39.934Z,0.60
2023-03-25T10:48:14.921Z,0.60
2023-03-25T10:50:48.963Z,0.60
2023-03-25T10:53:37.780Z,0.40
2023-03-25T10:56:10.667Z,0.50
2023-03-25T10:58:41.802Z,0.40
2023-03-25T11:01:13.611Z,0.40
2023-03-25T11:03:44.651Z,0.60
2023-03-25T11:06:24.516Z,0.40
2023-03-25T11:09:28.626Z,0.50
2023-03-25T11:12:01.313Z,0.53
2023-03-25T11:14:34.816Z,0.53
2023-03-25T11:17:17.545Z,0.40
2023-03-25T11:19:53.748Z,0.87
2023-03-25T11:22:31.353Z,0.77
2023-03-25T11:25:05.921Z,1.43
2023-03-25T11:27:47.741Z,0.77
2023-03-25T11:30:20.967Z,1.13
2023-03-25T11:33:01.725Z,0.80
2023-03-25T11:35:46.268Z,1.60
2023-03-25T11:38:17.642Z,1.00
2023-03-25T11:40:55.061Z,0.80
2023-03-25T11:43:30.473Z,2.20
2023-03-25T11:46:10.876Z,0.73
2023-03-25T11:48:41.465Z,0.73
2023-03-25T11:51:14.801Z,1.00
2023-03-25T11:53:49.707Z,0.80
2023-03-25T11:56:23.358Z,0.67
2023-03-25T11:58:57.442Z,0.80
2023-03-25T12:01:32.829Z,0.90
2023-03-25T12:04:19.876Z,1.00
2023-03-25T12:07:04.528Z,0.70
2023-03-25T12:09:33.745Z,0.80
2023-03-25T12:12:12.460Z,0.80
2023-03-25T12:14:52.090Z,0.67
2023-03-25T12:17:24.450Z,0.87
2023-03-25T12:20:05.434Z,0.90
2023-03-25T12:22:47.226Z,1.00
2023-03-25T12:25:30.053Z,0.77
2023-03-25T12:28:16.461Z,0.70
2023-03-25T12:30:58.088Z,1.00
2023-03-25T12:33:45.075Z,0.87
2023-03-25T12:36:31.467Z,1.10
2023-03-25T12:39:11.216Z,0.90
2023-03-25T12:41:47.664Z,0.63
2023-03-25T12:44:27.579Z,0.60
2023-03-25T12:47:20.946Z,0.80
2023-03-25T12:50:06.979Z,0.70
2023-03-25T12:52:48.259Z,0.80
2023-03-25T12:55:30.284Z,0.53
2023-03-25T12:58:19.148Z,0.90
2023-03-25T13:00:52.426Z,0.80
2023-03-25T13:03:43.635Z,0.60
2023-03-25T13:06:20.628Z,0.90
2023-03-25T13:08:55.552Z,1.00
2023-03-25T13:11:29.206Z,0.70
2023-03-25T13:13:59.735Z,0.67
2023-03-25T13:16:31.694Z,1.00
2023-03-25T13:19:08.533Z,1.00
2023-03-25T13:21:45.802Z,1.20
2023-03-25T13:24:18.334Z,1.13
2023-03-25T13:26:51.704Z,1.63
2023-03-25T13:29:27.994Z,1.30
2023-03-25T13:32:00.852Z,0.90
2023-03-25T13:34:36.634Z,1.00
2023-03-25T13:37:10.208Z,0.80
2023-03-25T13:39:54.866Z,1.27
2023-03-25T13:42:31.788Z,0.97
2023-03-25T13:45:00.440Z,1.03
2023-03-25T13:47:37.258Z,0.70
2023-03-25T13:50:15.924Z,1.00
2023-03-25T13:52:49.364Z,1.00
2023-03-25T13:55:21.390Z,0.97
2023-03-25T13:58:19.560Z,1.30
2023-03-25T14:01:07.218Z,0.97
2023-03-25T14:04:12.314Z,1.17
2023-03-25T14:07:14.635Z,0.80
2023-03-25T14:10:09.308Z,0.80
2023-03-25T14:12:39.367Z,1.20
2023-03-25T14:15:12.709Z,1.23
2023-03-25T14:17:45.846Z,1.13
2023-03-25T14:20:26.322Z,1.23
2023-03-25T14:23:01.264Z,0.90
2023-03-25T14:25:34.272Z,0.80
2023-03-25T14:28:05.678Z,1.07
2023-03-25T14:30:38.651Z,1.00
2023-03-25T14:33:11.886Z,0.80
2023-03-25T14:35:53.011Z,0.90
2023-03-25T14:38:59.612Z,1.37
2023-03-25T14:42:07.356Z,1.60
2023-03-25T14:44:51.875Z,1.00
2023-03-25T14:47:35.479Z,1.50
2023-03-25T14:50:09.932Z,1.43
2023-03-25T14:52:41.503Z,1.40
2023-03-25T14:55:21.950Z,1.90
2023-03-25T14:57:56.778Z,1.37
2023-03-25T15:00:31.762Z,1.93
2023-03-25T15:03:03.309Z,1.80
2023-03-25T15:05:34.361Z,1.50
2023-03-25T15:08:14.717Z,1.43
2023-03-25T15:10:54.274Z,1.60
2023-03-25T15:13:28.739Z,1.40
2023-03-25T15:16:03.577Z,1.87
2023-03-25T15:19:15.782Z,1.90
2023-03-25T15:22:11.815Z,1.73
2023-03-25T15:24:49.816Z,1.67
2023-03-25T15:27:39.959Z,1.30
2023-03-25T15:30:21.241Z,1.63
2023-03-25T15:32:59.989Z,1.40
2023-03-25T15:35:41.185Z,1.10
2023-03-25T15:38:31.001Z,1.50
2023-03-25T15:41:11.965Z,1.30
2023-03-25T15:44:13.732Z,1.43
2023-03-25T15:47:06.741Z,1.30
2023-03-25T15:50:15.540Z,1.20
2023-03-25T15:53:32.608Z,1.27
2023-03-25T15:56:11.197Z,0.90
2023-03-25T15:58:46.296Z,0.90
2023-03-25T16:01:28.882Z,1.00
2023-03-25T16:04:03.520Z,0.90
2023-03-25T16:06:36.069Z,1.07
2023-03-25T16:09:11.260Z,1.20
2023-03-25T16:11:44.171Z,1.10
2023-03-25T16:17:07.562Z,1.10
2023-03-25T16:19:40.044Z,1.10
2023-03-25T16:22:19.670Z,1.23
2023-03-25T16:24:52.872Z,0.97
2023-03-25T16:27:25.060Z,1.10
2023-03-25T16:29:54.585Z,1.20
2023-03-25T16:32:28.283Z,1.23
2023-03-25T16:34:59.241Z,0.90
2023-03-25T16:37:34.464Z,0.87
2023-03-25T16:40:08.172Z,1.20
2023-03-25T16:42:38.045Z,1.20
2023-03-25T16:45:10.058Z,1.30
2023-03-25T16:47:41.706Z,1.37
2023-03-25T16:50:19.667Z,1.50
2023-03-25T16:52:49.763Z,1.17
2023-03-25T16:55:33.000Z,1.20
2023-03-25T16:58:05.376Z,1.50
2023-03-25T17:00:44.441Z,1.03
2023-03-25T17:03:22.255Z,1.40
2023-03-25T17:05:57.352Z,2.90
2023-03-25T17:08:27.049Z,1.00
2023-03-25T17:10:58.099Z,1.10
2023-03-25T17:13:30.033Z,0.90
2023-03-25T17:16:03.841Z,1.17
2023-03-25T17:18:38.110Z,1.80
2023-03-25T17:21:14.306Z,1.60
2023-03-25T17:23:48.955Z,1.53
2023-03-25T17:26:25.178Z,1.50
2023-03-25T17:29:03.190Z,1.30
2023-03-25T17:31:42.373Z,1.40
2023-03-25T17:34:16.562Z,1.50
2023-03-25T17:39:45.641Z,1.80
2023-03-25T17:42:23.742Z,1.40
2023-03-25T17:44:52.787Z,1.67
2023-03-25T17:47:22.095Z,1.13
2023-03-25T17:49:54.074Z,1.70
2023-03-25T17:52:23.855Z,1.43
2023-03-25T17:54:54.180Z,1.30
2023-03-25T17:57:25.736Z,2.03
2023-03-25T17:59:57.933Z,2.67
2023-03-25T18:02:26.627Z,2.07
2023-03-25T18:05:06.457Z,2.20
2023-03-25T18:07:35.375Z,4.90
2023-03-25T18:10:05.367Z,2.77
2023-03-25T18:12:34.312Z,1.97
2023-03-25T18:15:07.792Z,2.37
2023-03-25T18:17:41.757Z,2.60
2023-03-25T18:20:21.487Z,2.40
2023-03-25T18:22:49.893Z,1.90
2023-03-25T18:25:18.531Z,2.13
2023-03-25T18:27:53.946Z,1.70
2023-03-25T18:30:26.316Z,2.27
2023-03-25T18:32:55.622Z,1.97
2023-03-25T18:35:28.249Z,2.80
2023-03-25T18:37:58.358Z,2.37
2023-03-25T18:40:31.013Z,2.67
2023-03-25T18:43:02.574Z,3.40
2023-03-25T18:45:30.749Z,3.20
2023-03-25T18:47:58.958Z,2.40
2023-03-25T18:50:33.755Z,2.30
2023-03-25T18:53:04.938Z,3.03
2023-03-25T18:55:34.465Z,2.67
2023-03-25T18:58:04.670Z,2.63
2023-03-25T19:01:06.553Z,1.80
2023-03-25T19:03:41.170Z,3.43
2023-03-25T19:06:30.918Z,2.90
2023-03-25T19:09:02.943Z,1.73
2023-03-25T19:11:36.495Z,1.83
2023-03-25T19:14:04.557Z,2.13
2023-03-25T19:16:36.844Z,1.67
2023-03-25T19:19:07.864Z,2.10
2023-03-25T19:21:47.606Z,1.63
2023-03-25T19:24:16.296Z,1.70
2023-03-25T19:26:49.185Z,3.47
2023-03-25T19:29:17.703Z,1.10
2023-03-25T19:31:46.873Z,1.07
2023-03-25T19:34:17.022Z,1.20
2023-03-25T19:36:50.402Z,1.87
2023-03-25T19:39:25.947Z,1.00
2023-03-25T19:41:55.407Z,1.27
2023-03-25T19:44:25.428Z,1.10
2023-03-25T19:46:55.425Z,1.10
2023-03-25T19:49:39.164Z,1.20
2023-03-25T19:52:16.981Z,1.00
2023-03-25T19:54:45.435Z,1.20
2023-03-25T19:57:14.755Z,1.20
2023-03-25T19:59:48.135Z,1.13
2023-03-25T20:02:18.204Z,1.50
2023-03-25T20:04:48.420Z,1.13
2023-03-25T20:07:24.130Z,1.20
2023-03-25T20:09:54.969Z,1.00
2023-03-25T20:12:29.111Z,1.20
2023-03-25T20:14:58.307Z,1.40
2023-03-25T20:17:29.966Z,1.70
2023-03-25T20:20:08.500Z,1.30
2023-03-25T20:22:48.339Z,1.20
2023-03-25T20:25:24.158Z,1.50
2023-03-25T20:27:55.022Z,1.30
2023-03-25T20:30:32.224Z,1.40
2023-03-25T20:33:07.006Z,1.20
2023-03-25T20:35:38.619Z,1.30
2023-03-25T20:38:10.522Z,2.07
2023-03-25T20:40:44.476Z,1.07
2023-03-25T20:43:16.721Z,1.27
2023-03-25T20:45:50.153Z,1.47
2023-03-25T20:48:23.537Z,1.90
2023-03-25T20:50:53.017Z,1.73
2023-03-25T20:53:24.570Z,1.93
2023-03-25T20:55:57.227Z,1.80
2023-03-25T20:58:29.896Z,1.93
2023-03-25T21:01:01.373Z,1.67
2023-03-25T21:03:32.842Z,1.87
2023-03-25T21:06:10.377Z,1.23
2023-03-25T21:08:45.075Z,1.70
2023-03-25T21:11:14.444Z,2.03
2023-03-25T21:13:43.627Z,1.60
2023-03-25T21:16:13.303Z,2.40
2023-03-25T21:18:42.750Z,2.27
2023-03-25T21:21:14.623Z,1.33
2023-03-25T21:23:45.841Z,1.30
2023-03-25T21:26:16.724Z,1.73
2023-03-25T21:28:48.998Z,1.40
2023-03-25T21:31:23.466Z,1.30
2023-03-25T21:33:57.939Z,1.73
2023-03-25T21:36:31.576Z,1.60
2023-03-25T21:39:03.688Z,1.70
2023-03-25T21:41:35.363Z,2.00
2023-03-25T21:44:09.866Z,4.00
2023-03-25T21:46:39.201Z,5.43
2023-03-25T21:49:16.339Z,2.77
2023-03-25T21:51:51.339Z,1.73
2023-03-25T21:54:22.150Z,1.83
2023-03-25T21:56:54.752Z,2.30
2023-03-25T21:59:26.198Z,2.40
2023-03-25T22:01:58.055Z,2.37
2023-03-25T22:04:27.561Z,2.40
2023-03-25T22:06:56.800Z,1.83
2023-03-25T22:09:31.098Z,2.57
2023-03-25T22:11:59.699Z,2.30
2023-03-25T22:14:28.520Z,1.73
2023-03-25T22:16:57.566Z,1.80
2023-03-25T22:19:28.348Z,2.20
2023-03-25T22:22:04.324Z,1.90
2023-03-25T22:24:45.160Z,2.13
2023-03-25T22:27:15.056Z,1.80
2023-03-25T22:29:43.705Z,1.50
2023-03-25T22:32:12.163Z,1.70
2023-03-25T22:34:43.988Z,2.47
2023-03-25T22:37:12.685Z,1.67
2023-03-25T22:40:00.521Z,1.90
2023-03-25T22:42:33.020Z,1.80
2023-03-25T22:45:07.118Z,1.50
2023-03-25T22:47:37.258Z,1.60
2023-03-25T22:50:05.948Z,1.53
2023-03-25T22:52:34.466Z,2.27
2023-03-25T22:55:07.929Z,1.90
2023-03-25T22:57:39.129Z,2.30
2023-03-25T23:00:14.918Z,2.00
2023-03-25T23:02:44.418Z,2.10
2023-03-25T23:05:17.693Z,1.93
2023-03-25T23:07:45.847Z,2.60
2023-03-25T23:10:21.425Z,1.90
2023-03-25T23:12:52.026Z,2.00
2023-03-25T23:15:23.516Z,1.90
2023-03-25T23:17:56.654Z,1.77
2023-03-25T23:20:27.415Z,2.00
2023-03-25T23:22:59.112Z,1.80
2023-03-25T23:25:29.850Z,1.43
2023-03-25T23:28:07.406Z,1.73
2023-03-25T23:30:36.140Z,2.10
2023-03-25T23:33:05.802Z,2.00
2023-03-25T23:35:35.646Z,1.70
2023-03-25T23:38:18.249Z,1.63
2023-03-25T23:40:58.702Z,2.10
2023-03-25T23:43:28.039Z,1.80
2023-03-25T23:45:59.055Z,1.57
2023-03-25T23:48:29.352Z,1.47
2023-03-25T23:50:59.702Z,1.73
2023-03-25T23:53:31.191Z,1.73
2023-03-25T23:56:04.312Z,1.63
2023-03-25T23:58:33.489Z,1.90
